SAEZ/EZE METAR and TAF weather

Enter ICAO airport designator
Station Type Date Time Source
SAEZ METAR 2020/07/06 23:00 UTC NOAA

SAEZ 062300Z 19002KT CAVOK 05/03 Q1025 NOSIG


Station Type Date Time Source
SAEZ Decoded METAR 2020/07/06 23:00 UTC NOAA

Ezeiza Aerodrome, Argentina (SAEZ) 34-49S 058-32W 20M
Jul 06, 2020 - 07:00 PM EDT / 2020.07.06 2300 UTC
Wind: from the S (190 degrees) at 2 MPH (2 KT):0
Visibility: greater than 7 mile(s):0
Temperature: 41 F (5 C)
Dew Point: 37 F (3 C)
Relative Humidity: 86%
Pressure (altimeter): 30.27 in. Hg (1025 hPa)
ob: SAEZ 062300Z 19002KT CAVOK 05/03 Q1025 NOSIG
cycle: 23

Station Type Date Time Source
SAEZ TAF 2020/07/06 18:21 UTC NOAA

TAF TAF SAEZ 061700Z 0618/0718 18005KT 9999 SCT030 TX10/0718Z TN03/0711Z
BECMG 0620/0622 14005KT
BECMG 0703/0705 09005KT SCT020
BECMG 0706/0709 09010KT BKN020
BECMG 0712/0714 5000 -RADZ OVC020

Example: see airport list